sensor_id;sensor_type;location;lat;lon;timestamp;P1;durP1;ratioP1;P2;durP2;ratioP2
54705;SDS011;40603;48.774;8.916;2022-11-15T00:00:01;13.32;;;5.15;;
54705;SDS011;40603;48.774;8.916;2022-11-15T00:02:26;7.72;;;3.58;;
54705;SDS011;40603;48.774;8.916;2022-11-15T00:04:51;7.95;;;3.63;;
54705;SDS011;40603;48.774;8.916;2022-11-15T00:07:16;8.80;;;3.80;;
54705;SDS011;40603;48.774;8.916;2022-11-15T00:09:42;7.43;;;3.47;;
54705;SDS011;40603;48.774;8.916;2022-11-15T00:12:07;5.75;;;3.47;;
54705;SDS011;40603;48.774;8.916;2022-11-15T00:14:32;8.35;;;3.80;;
54705;SDS011;40603;48.774;8.916;2022-11-15T00:16:58;5.75;;;3.90;;
54705;SDS011;40603;48.774;8.916;2022-11-15T00:19:23;9.32;;;3.92;;
54705;SDS011;40603;48.774;8.916;2022-11-15T00:21:48;9.52;;;3.42;;
54705;SDS011;40603;48.774;8.916;2022-11-15T00:24:14;7.40;;;3.20;;
54705;SDS011;40603;48.774;8.916;2022-11-15T00:26:39;6.90;;;3.22;;
54705;SDS011;40603;48.774;8.916;2022-11-15T00:29:04;9.35;;;3.42;;
54705;SDS011;40603;48.774;8.916;2022-11-15T00:31:30;4.45;;;2.90;;
54705;SDS011;40603;48.774;8.916;2022-11-15T00:33:55;3.42;;;2.75;;
54705;SDS011;40603;48.774;8.916;2022-11-15T00:36:21;4.43;;;2.67;;
54705;SDS011;40603;48.774;8.916;2022-11-15T00:38:46;6.07;;;2.60;;
54705;SDS011;40603;48.774;8.916;2022-11-15T00:41:11;4.05;;;2.85;;
54705;SDS011;40603;48.774;8.916;2022-11-15T00:43:36;5.47;;;3.05;;
54705;SDS011;40603;48.774;8.916;2022-11-15T00:46:02;6.00;;;3.20;;
54705;SDS011;40603;48.774;8.916;2022-11-15T00:48:28;6.30;;;2.85;;
54705;SDS011;40603;48.774;8.916;2022-11-15T00:50:53;5.97;;;2.90;;
54705;SDS011;40603;48.774;8.916;2022-11-15T00:53:18;5.70;;;3.05;;
54705;SDS011;40603;48.774;8.916;2022-11-15T00:55:44;4.75;;;3.05;;
54705;SDS011;40603;48.774;8.916;2022-11-15T00:58:09;8.65;;;3.20;;
54705;SDS011;40603;48.774;8.916;2022-11-15T01:00:34;4.75;;;3.20;;
54705;SDS011;40603;48.774;8.916;2022-11-15T01:03:00;5.50;;;3.55;;
54705;SDS011;40603;48.774;8.916;2022-11-15T01:05:26;4.85;;;3.10;;
54705;SDS011;40603;48.774;8.916;2022-11-15T01:07:52;5.43;;;3.13;;
54705;SDS011;40603;48.774;8.916;2022-11-15T01:10:17;4.28;;;2.70;;
54705;SDS011;40603;48.774;8.916;2022-11-15T01:12:43;5.57;;;3.05;;
54705;SDS011;40603;48.774;8.916;2022-11-15T01:15:08;5.05;;;2.80;;
54705;SDS011;40603;48.774;8.916;2022-11-15T01:17:33;3.78;;;2.80;;
54705;SDS011;40603;48.774;8.916;2022-11-15T01:19:59;7.40;;;2.80;;
54705;SDS011;40603;48.774;8.916;2022-11-15T01:22:24;6.70;;;2.50;;
54705;SDS011;40603;48.774;8.916;2022-11-15T01:24:50;3.40;;;2.55;;
54705;SDS011;40603;48.774;8.916;2022-11-15T01:27:15;4.55;;;2.53;;
54705;SDS011;40603;48.774;8.916;2022-11-15T01:29:41;3.90;;;2.70;;
54705;SDS011;40603;48.774;8.916;2022-11-15T01:32:06;3.75;;;2.45;;
54705;SDS011;40603;48.774;8.916;2022-11-15T01:34:31;5.20;;;2.40;;
54705;SDS011;40603;48.774;8.916;2022-11-15T01:36:57;4.00;;;2.92;;
54705;SDS011;40603;48.774;8.916;2022-11-15T01:39:22;7.28;;;3.10;;
54705;SDS011;40603;48.774;8.916;2022-11-15T01:41:47;3.90;;;2.47;;
54705;SDS011;40603;48.774;8.916;2022-11-15T01:47:09;5.18;;;2.60;;
54705;SDS011;40603;48.774;8.916;2022-11-15T01:49:43;4.00;;;2.58;;
54705;SDS011;40603;48.774;8.916;2022-11-15T01:52:19;3.85;;;2.35;;
54705;SDS011;40603;48.774;8.916;2022-11-15T01:54:46;5.63;;;2.83;;
54705;SDS011;40603;48.774;8.916;2022-11-15T01:57:13;4.95;;;2.55;;
54705;SDS011;40603;48.774;8.916;2022-11-15T01:59:40;6.45;;;2.50;;
54705;SDS011;40603;48.774;8.916;2022-11-15T02:02:07;5.25;;;2.92;;
54705;SDS011;40603;48.774;8.916;2022-11-15T02:04:34;3.97;;;2.80;;
54705;SDS011;40603;48.774;8.916;2022-11-15T02:07:04;5.28;;;2.38;;
54705;SDS011;40603;48.774;8.916;2022-11-15T02:09:31;5.38;;;2.67;;
54705;SDS011;40603;48.774;8.916;2022-11-15T02:11:56;6.65;;;2.85;;
54705;SDS011;40603;48.774;8.916;2022-11-15T02:14:22;4.85;;;2.65;;
54705;SDS011;40603;48.774;8.916;2022-11-15T02:22:14;6.85;;;2.38;;
54705;SDS011;40603;48.774;8.916;2022-11-15T02:32:47;4.57;;;2.63;;
54705;SDS011;40603;48.774;8.916;2022-11-15T02:37:56;5.90;;;3.28;;
54705;SDS011;40603;48.774;8.916;2022-11-15T02:43:09;5.88;;;2.72;;
54705;SDS011;40603;48.774;8.916;2022-11-15T02:49:16;3.70;;;2.50;;
54705;SDS011;40603;48.774;8.916;2022-11-15T02:51:42;4.95;;;2.67;;
54705;SDS011;40603;48.774;8.916;2022-11-15T02:54:15;4.30;;;2.85;;
54705;SDS011;40603;48.774;8.916;2022-11-15T02:56:44;5.30;;;2.50;;
54705;SDS011;40603;48.774;8.916;2022-11-15T02:59:18;6.70;;;3.13;;
54705;SDS011;40603;48.774;8.916;2022-11-15T03:02:02;11.57;;;2.67;;
54705;SDS011;40603;48.774;8.916;2022-11-15T03:04:43;5.10;;;2.83;;
54705;SDS011;40603;48.774;8.916;2022-11-15T03:07:17;4.63;;;3.00;;
54705;SDS011;40603;48.774;8.916;2022-11-15T03:12:48;4.47;;;2.38;;
54705;SDS011;40603;48.774;8.916;2022-11-15T03:15:24;4.57;;;3.28;;
54705;SDS011;40603;48.774;8.916;2022-11-15T03:20:26;6.88;;;3.10;;
54705;SDS011;40603;48.774;8.916;2022-11-15T03:22:52;6.68;;;3.03;;
54705;SDS011;40603;48.774;8.916;2022-11-15T03:25:19;4.32;;;2.90;;
54705;SDS011;40603;48.774;8.916;2022-11-15T03:27:47;9.23;;;3.47;;
54705;SDS011;40603;48.774;8.916;2022-11-15T03:30:15;4.57;;;2.90;;
54705;SDS011;40603;48.774;8.916;2022-11-15T03:32:43;5.13;;;3.05;;
54705;SDS011;40603;48.774;8.916;2022-11-15T03:35:12;4.78;;;2.90;;
54705;SDS011;40603;48.774;8.916;2022-11-15T03:37:57;3.78;;;2.85;;
54705;SDS011;40603;48.774;8.916;2022-11-15T03:40:31;4.63;;;2.70;;
54705;SDS011;40603;48.774;8.916;2022-11-15T03:43:09;5.05;;;2.90;;
54705;SDS011;40603;48.774;8.916;2022-11-15T03:45:43;3.72;;;3.05;;
54705;SDS011;40603;48.774;8.916;2022-11-15T03:48:16;4.53;;;3.08;;
54705;SDS011;40603;48.774;8.916;2022-11-15T03:50:46;5.18;;;2.70;;
54705;SDS011;40603;48.774;8.916;2022-11-15T03:53:12;9.43;;;3.25;;
54705;SDS011;40603;48.774;8.916;2022-11-15T03:55:37;5.18;;;2.42;;
54705;SDS011;40603;48.774;8.916;2022-11-15T03:58:02;4.95;;;2.90;;
54705;SDS011;40603;48.774;8.916;2022-11-15T04:00:28;3.97;;;2.70;;
54705;SDS011;40603;48.774;8.916;2022-11-15T04:02:54;5.25;;;2.90;;
54705;SDS011;40603;48.774;8.916;2022-11-15T04:05:19;5.43;;;2.97;;
54705;SDS011;40603;48.774;8.916;2022-11-15T04:07:44;4.93;;;2.63;;
54705;SDS011;40603;48.774;8.916;2022-11-15T04:10:10;4.35;;;2.80;;
54705;SDS011;40603;48.774;8.916;2022-11-15T04:12:37;4.03;;;2.60;;
54705;SDS011;40603;48.774;8.916;2022-11-15T04:15:12;7.72;;;2.72;;
54705;SDS011;40603;48.774;8.916;2022-11-15T04:17:46;5.18;;;2.85;;
54705;SDS011;40603;48.774;8.916;2022-11-15T04:23:03;5.78;;;2.53;;
54705;SDS011;40603;48.774;8.916;2022-11-15T04:25:52;5.78;;;2.78;;
54705;SDS011;40603;48.774;8.916;2022-11-15T04:28:19;3.88;;;2.72;;
54705;SDS011;40603;48.774;8.916;2022-11-15T04:30:44;3.85;;;2.67;;
54705;SDS011;40603;48.774;8.916;2022-11-15T04:33:10;7.57;;;2.88;;
54705;SDS011;40603;48.774;8.916;2022-11-15T04:35:35;5.85;;;2.97;;
54705;SDS011;40603;48.774;8.916;2022-11-15T04:38:00;4.32;;;2.50;;
54705;SDS011;40603;48.774;8.916;2022-11-15T04:40:26;6.40;;;2.90;;
54705;SDS011;40603;48.774;8.916;2022-11-15T04:42:52;6.47;;;2.60;;
54705;SDS011;40603;48.774;8.916;2022-11-15T04:45:17;10.73;;;3.13;;
54705;SDS011;40603;48.774;8.916;2022-11-15T04:47:43;6.32;;;3.13;;
54705;SDS011;40603;48.774;8.916;2022-11-15T04:50:09;5.07;;;2.85;;
54705;SDS011;40603;48.774;8.916;2022-11-15T04:52:38;4.63;;;2.63;;
54705;SDS011;40603;48.774;8.916;2022-11-15T04:55:03;4.82;;;2.63;;
54705;SDS011;40603;48.774;8.916;2022-11-15T04:57:29;5.40;;;2.67;;
54705;SDS011;40603;48.774;8.916;2022-11-15T04:59:54;5.35;;;3.35;;
54705;SDS011;40603;48.774;8.916;2022-11-15T05:02:19;6.07;;;3.13;;
54705;SDS011;40603;48.774;8.916;2022-11-15T05:04:45;7.28;;;2.92;;
54705;SDS011;40603;48.774;8.916;2022-11-15T05:07:10;6.80;;;3.35;;
54705;SDS011;40603;48.774;8.916;2022-11-15T05:09:36;11.65;;;6.22;;
54705;SDS011;40603;48.774;8.916;2022-11-15T05:12:01;4.40;;;2.75;;
54705;SDS011;40603;48.774;8.916;2022-11-15T05:14:26;7.05;;;3.00;;
54705;SDS011;40603;48.774;8.916;2022-11-15T05:16:51;4.97;;;3.10;;
54705;SDS011;40603;48.774;8.916;2022-11-15T05:19:17;3.65;;;2.58;;
54705;SDS011;40603;48.774;8.916;2022-11-15T05:21:42;11.57;;;4.78;;
54705;SDS011;40603;48.774;8.916;2022-11-15T05:24:09;8.38;;;4.20;;
54705;SDS011;40603;48.774;8.916;2022-11-15T05:26:35;13.73;;;6.03;;
54705;SDS011;40603;48.774;8.916;2022-11-15T05:29:00;24.08;;;10.57;;
54705;SDS011;40603;48.774;8.916;2022-11-15T05:31:26;10.13;;;5.10;;
54705;SDS011;40603;48.774;8.916;2022-11-15T05:33:52;10.07;;;4.15;;
54705;SDS011;40603;48.774;8.916;2022-11-15T05:36:27;12.15;;;4.30;;
54705;SDS011;40603;48.774;8.916;2022-11-15T05:38:54;7.30;;;3.30;;
54705;SDS011;40603;48.774;8.916;2022-11-15T05:41:21;7.95;;;3.78;;
54705;SDS011;40603;48.774;8.916;2022-11-15T05:43:50;7.90;;;3.97;;
54705;SDS011;40603;48.774;8.916;2022-11-15T05:46:16;6.20;;;3.10;;
54705;SDS011;40603;48.774;8.916;2022-11-15T05:48:43;6.07;;;3.00;;
54705;SDS011;40603;48.774;8.916;2022-11-15T05:51:11;6.22;;;3.40;;
54705;SDS011;40603;48.774;8.916;2022-11-15T05:53:37;7.47;;;4.03;;
54705;SDS011;40603;48.774;8.916;2022-11-15T05:56:03;11.23;;;4.30;;
54705;SDS011;40603;48.774;8.916;2022-11-15T05:58:30;7.10;;;4.28;;
54705;SDS011;40603;48.774;8.916;2022-11-15T06:00:57;10.05;;;3.83;;
54705;SDS011;40603;48.774;8.916;2022-11-15T06:03:22;5.45;;;3.22;;
54705;SDS011;40603;48.774;8.916;2022-11-15T06:05:47;7.03;;;3.10;;
54705;SDS011;40603;48.774;8.916;2022-11-15T06:08:13;6.40;;;2.88;;
54705;SDS011;40603;48.774;8.916;2022-11-15T06:10:38;4.72;;;2.70;;
54705;SDS011;40603;48.774;8.916;2022-11-15T06:13:04;4.18;;;2.88;;
54705;SDS011;40603;48.774;8.916;2022-11-15T06:15:29;7.18;;;2.40;;
54705;SDS011;40603;48.774;8.916;2022-11-15T06:17:57;4.07;;;2.17;;
54705;SDS011;40603;48.774;8.916;2022-11-15T06:20:23;4.18;;;2.55;;
54705;SDS011;40603;48.774;8.916;2022-11-15T06:23:01;6.60;;;2.33;;
54705;SDS011;40603;48.774;8.916;2022-11-15T06:25:28;5.65;;;2.78;;
54705;SDS011;40603;48.774;8.916;2022-11-15T06:27:54;4.13;;;2.63;;
54705;SDS011;40603;48.774;8.916;2022-11-15T06:30:20;3.65;;;2.55;;
54705;SDS011;40603;48.774;8.916;2022-11-15T06:32:46;4.97;;;2.55;;
54705;SDS011;40603;48.774;8.916;2022-11-15T06:35:12;3.90;;;2.45;;
54705;SDS011;40603;48.774;8.916;2022-11-15T06:37:37;5.82;;;2.55;;
54705;SDS011;40603;48.774;8.916;2022-11-15T06:40:03;4.88;;;1.95;;
54705;SDS011;40603;48.774;8.916;2022-11-15T06:42:28;3.00;;;2.38;;
54705;SDS011;40603;48.774;8.916;2022-11-15T06:44:54;5.68;;;3.00;;
54705;SDS011;40603;48.774;8.916;2022-11-15T06:47:19;5.13;;;3.35;;
54705;SDS011;40603;48.774;8.916;2022-11-15T06:49:44;4.93;;;2.83;;
54705;SDS011;40603;48.774;8.916;2022-11-15T06:52:10;4.07;;;2.70;;
54705;SDS011;40603;48.774;8.916;2022-11-15T06:54:35;4.80;;;2.20;;
54705;SDS011;40603;48.774;8.916;2022-11-15T06:57:00;4.40;;;2.35;;
54705;SDS011;40603;48.774;8.916;2022-11-15T06:59:25;3.50;;;2.40;;
54705;SDS011;40603;48.774;8.916;2022-11-15T07:01:51;4.05;;;2.47;;
54705;SDS011;40603;48.774;8.916;2022-11-15T07:04:16;4.43;;;2.60;;
54705;SDS011;40603;48.774;8.916;2022-11-15T07:06:41;3.65;;;2.60;;
54705;SDS011;40603;48.774;8.916;2022-11-15T07:09:07;3.92;;;2.40;;
54705;SDS011;40603;48.774;8.916;2022-11-15T07:11:32;4.30;;;2.35;;
54705;SDS011;40603;48.774;8.916;2022-11-15T07:13:59;3.38;;;2.58;;
54705;SDS011;40603;48.774;8.916;2022-11-15T07:16:24;6.13;;;3.20;;
54705;SDS011;40603;48.774;8.916;2022-11-15T07:18:50;8.13;;;3.25;;
54705;SDS011;40603;48.774;8.916;2022-11-15T07:21:15;6.35;;;3.10;;
54705;SDS011;40603;48.774;8.916;2022-11-15T07:23:40;9.65;;;3.47;;
54705;SDS011;40603;48.774;8.916;2022-11-15T07:26:06;6.35;;;3.15;;
54705;SDS011;40603;48.774;8.916;2022-11-15T07:28:32;6.28;;;3.00;;
54705;SDS011;40603;48.774;8.916;2022-11-15T07:31:01;5.28;;;2.85;;
54705;SDS011;40603;48.774;8.916;2022-11-15T07:33:27;5.55;;;2.53;;
54705;SDS011;40603;48.774;8.916;2022-11-15T07:35:52;4.85;;;2.10;;
54705;SDS011;40603;48.774;8.916;2022-11-15T07:38:18;7.97;;;3.05;;
54705;SDS011;40603;48.774;8.916;2022-11-15T07:40:46;8.07;;;2.90;;
54705;SDS011;40603;48.774;8.916;2022-11-15T07:43:11;7.50;;;3.08;;
54705;SDS011;40603;48.774;8.916;2022-11-15T07:45:44;5.82;;;2.60;;
54705;SDS011;40603;48.774;8.916;2022-11-15T07:48:09;11.38;;;2.83;;
54705;SDS011;40603;48.774;8.916;2022-11-15T07:50:35;6.82;;;3.20;;
54705;SDS011;40603;48.774;8.916;2022-11-15T07:53:00;5.03;;;2.45;;
54705;SDS011;40603;48.774;8.916;2022-11-15T07:55:26;5.07;;;2.50;;
54705;SDS011;40603;48.774;8.916;2022-11-15T07:58:05;7.00;;;3.08;;
54705;SDS011;40603;48.774;8.916;2022-11-15T08:00:32;15.60;;;3.45;;
54705;SDS011;40603;48.774;8.916;2022-11-15T08:03:05;10.30;;;4.53;;
54705;SDS011;40603;48.774;8.916;2022-11-15T08:05:32;8.60;;;4.30;;
54705;SDS011;40603;48.774;8.916;2022-11-15T08:07:57;9.00;;;3.97;;
54705;SDS011;40603;48.774;8.916;2022-11-15T08:10:23;6.03;;;3.47;;
54705;SDS011;40603;48.774;8.916;2022-11-15T08:12:56;5.07;;;3.05;;
54705;SDS011;40603;48.774;8.916;2022-11-15T08:15:22;6.07;;;3.20;;
54705;SDS011;40603;48.774;8.916;2022-11-15T08:17:52;6.40;;;2.63;;
54705;SDS011;40603;48.774;8.916;2022-11-15T08:22:44;6.45;;;3.05;;
54705;SDS011;40603;48.774;8.916;2022-11-15T08:25:09;4.10;;;2.72;;
54705;SDS011;40603;48.774;8.916;2022-11-15T08:27:35;4.15;;;2.60;;
54705;SDS011;40603;48.774;8.916;2022-11-15T08:30:00;2.65;;;2.08;;
54705;SDS011;40603;48.774;8.916;2022-11-15T08:32:26;8.02;;;1.90;;
54705;SDS011;40603;48.774;8.916;2022-11-15T08:34:51;4.07;;;1.73;;
54705;SDS011;40603;48.774;8.916;2022-11-15T08:37:17;3.22;;;2.22;;
54705;SDS011;40603;48.774;8.916;2022-11-15T08:39:42;3.58;;;2.10;;
54705;SDS011;40603;48.774;8.916;2022-11-15T08:42:07;2.83;;;1.80;;
54705;SDS011;40603;48.774;8.916;2022-11-15T08:44:32;3.67;;;2.00;;
54705;SDS011;40603;48.774;8.916;2022-11-15T08:46:58;3.65;;;2.17;;
54705;SDS011;40603;48.774;8.916;2022-11-15T08:49:23;6.13;;;1.73;;
54705;SDS011;40603;48.774;8.916;2022-11-15T08:51:48;4.93;;;2.10;;
54705;SDS011;40603;48.774;8.916;2022-11-15T08:54:14;5.40;;;1.85;;
54705;SDS011;40603;48.774;8.916;2022-11-15T08:56:39;3.72;;;2.00;;
54705;SDS011;40603;48.774;8.916;2022-11-15T08:59:04;5.00;;;1.85;;
54705;SDS011;40603;48.774;8.916;2022-11-15T09:01:29;4.60;;;2.00;;
54705;SDS011;40603;48.774;8.916;2022-11-15T09:03:55;2.28;;;1.63;;
54705;SDS011;40603;48.774;8.916;2022-11-15T09:06:21;4.63;;;1.73;;
54705;SDS011;40603;48.774;8.916;2022-11-15T09:08:46;4.53;;;1.73;;
54705;SDS011;40603;48.774;8.916;2022-11-15T09:11:11;9.88;;;4.63;;
54705;SDS011;40603;48.774;8.916;2022-11-15T09:13:37;7.32;;;3.55;;
54705;SDS011;40603;48.774;8.916;2022-11-15T09:16:02;5.10;;;2.95;;
54705;SDS011;40603;48.774;8.916;2022-11-15T09:18:28;3.25;;;2.22;;
54705;SDS011;40603;48.774;8.916;2022-11-15T09:20:57;4.00;;;2.10;;
54705;SDS011;40603;48.774;8.916;2022-11-15T09:23:23;2.90;;;1.90;;
54705;SDS011;40603;48.774;8.916;2022-11-15T09:25:48;2.17;;;1.50;;
54705;SDS011;40603;48.774;8.916;2022-11-15T09:28:14;6.88;;;2.00;;
54705;SDS011;40603;48.774;8.916;2022-11-15T09:30:39;3.92;;;1.80;;
54705;SDS011;40603;48.774;8.916;2022-11-15T09:33:08;3.67;;;2.08;;
54705;SDS011;40603;48.774;8.916;2022-11-15T09:35:33;1.85;;;1.52;;
54705;SDS011;40603;48.774;8.916;2022-11-15T09:37:59;4.20;;;1.70;;
54705;SDS011;40603;48.774;8.916;2022-11-15T09:40:24;4.65;;;1.95;;
54705;SDS011;40603;48.774;8.916;2022-11-15T09:48:51;5.18;;;2.10;;
54705;SDS011;40603;48.774;8.916;2022-11-15T09:51:21;3.50;;;1.70;;
54705;SDS011;40603;48.774;8.916;2022-11-15T09:56:34;5.38;;;1.90;;
54705;SDS011;40603;48.774;8.916;2022-11-15T10:04:20;4.93;;;2.00;;
54705;SDS011;40603;48.774;8.916;2022-11-15T10:06:49;3.05;;;1.90;;
54705;SDS011;40603;48.774;8.916;2022-11-15T10:09:24;3.28;;;2.00;;
54705;SDS011;40603;48.774;8.916;2022-11-15T10:11:51;4.05;;;2.25;;
54705;SDS011;40603;48.774;8.916;2022-11-15T10:14:19;5.15;;;1.98;;
54705;SDS011;40603;48.774;8.916;2022-11-15T10:24:46;6.65;;;2.45;;
54705;SDS011;40603;48.774;8.916;2022-11-15T10:27:14;13.63;;;2.17;;
54705;SDS011;40603;48.774;8.916;2022-11-15T10:29:45;8.13;;;2.22;;
54705;SDS011;40603;48.774;8.916;2022-11-15T10:32:15;11.65;;;2.65;;
54705;SDS011;40603;48.774;8.916;2022-11-15T10:34:43;7.68;;;2.55;;
54705;SDS011;40603;48.774;8.916;2022-11-15T10:37:08;11.55;;;2.25;;
54705;SDS011;40603;48.774;8.916;2022-11-15T10:39:34;7.40;;;1.92;;
54705;SDS011;40603;48.774;8.916;2022-11-15T10:42:25;7.13;;;2.28;;
54705;SDS011;40603;48.774;8.916;2022-11-15T10:44:52;4.13;;;2.30;;
54705;SDS011;40603;48.774;8.916;2022-11-15T10:47:22;6.55;;;2.35;;
54705;SDS011;40603;48.774;8.916;2022-11-15T10:49:54;7.95;;;2.38;;
54705;SDS011;40603;48.774;8.916;2022-11-15T10:52:23;5.32;;;2.50;;
54705;SDS011;40603;48.774;8.916;2022-11-15T10:57:23;12.43;;;2.45;;
54705;SDS011;40603;48.774;8.916;2022-11-15T10:59:54;5.90;;;2.03;;
54705;SDS011;40603;48.774;8.916;2022-11-15T11:02:25;8.23;;;2.20;;
54705;SDS011;40603;48.774;8.916;2022-11-15T11:04:52;5.70;;;2.00;;
54705;SDS011;40603;48.774;8.916;2022-11-15T11:07:22;4.70;;;2.25;;
54705;SDS011;40603;48.774;8.916;2022-11-15T11:09:58;5.65;;;2.00;;
54705;SDS011;40603;48.774;8.916;2022-11-15T11:12:28;2.97;;;1.60;;
54705;SDS011;40603;48.774;8.916;2022-11-15T11:14:56;7.35;;;2.10;;
54705;SDS011;40603;48.774;8.916;2022-11-15T11:23:26;3.58;;;2.20;;
54705;SDS011;40603;48.774;8.916;2022-11-15T11:26:24;7.45;;;1.70;;
54705;SDS011;40603;48.774;8.916;2022-11-15T11:29:32;3.45;;;1.85;;
54705;SDS011;40603;48.774;8.916;2022-11-15T11:37:47;3.95;;;1.90;;
54705;SDS011;40603;48.774;8.916;2022-11-15T11:40:32;3.53;;;1.90;;
54705;SDS011;40603;48.774;8.916;2022-11-15T11:48:43;2.65;;;1.90;;
54705;SDS011;40603;48.774;8.916;2022-11-15T11:51:24;3.67;;;1.70;;
54705;SDS011;40603;48.774;8.916;2022-11-15T11:56:48;4.07;;;1.70;;
54705;SDS011;40603;48.774;8.916;2022-11-15T11:59:21;2.92;;;1.60;;
54705;SDS011;40603;48.774;8.916;2022-11-15T12:01:50;2.97;;;2.08;;
54705;SDS011;40603;48.774;8.916;2022-11-15T12:04:21;6.35;;;1.95;;
54705;SDS011;40603;48.774;8.916;2022-11-15T12:06:59;5.35;;;2.10;;
54705;SDS011;40603;48.774;8.916;2022-11-15T12:09:30;2.55;;;1.58;;
54705;SDS011;40603;48.774;8.916;2022-11-15T12:12:21;2.65;;;1.55;;
54705;SDS011;40603;48.774;8.916;2022-11-15T12:14:51;4.03;;;2.00;;
54705;SDS011;40603;48.774;8.916;2022-11-15T12:17:24;4.35;;;2.20;;
54705;SDS011;40603;48.774;8.916;2022-11-15T12:20:05;2.88;;;1.80;;
54705;SDS011;40603;48.774;8.916;2022-11-15T12:25:31;4.45;;;1.52;;
54705;SDS011;40603;48.774;8.916;2022-11-15T12:30:49;2.90;;;1.45;;
54705;SDS011;40603;48.774;8.916;2022-11-15T12:36:04;5.47;;;1.77;;
54705;SDS011;40603;48.774;8.916;2022-11-15T12:38:49;3.03;;;1.50;;
54705;SDS011;40603;48.774;8.916;2022-11-15T12:41:19;5.15;;;2.17;;
54705;SDS011;40603;48.774;8.916;2022-11-15T12:43:45;2.50;;;1.83;;
54705;SDS011;40603;48.774;8.916;2022-11-15T12:46:22;3.55;;;2.28;;
54705;SDS011;40603;48.774;8.916;2022-11-15T12:52:07;2.75;;;1.83;;
54705;SDS011;40603;48.774;8.916;2022-11-15T13:02:19;6.10;;;1.95;;
54705;SDS011;40603;48.774;8.916;2022-11-15T13:04:49;3.70;;;2.00;;
54705;SDS011;40603;48.774;8.916;2022-11-15T13:09:59;5.18;;;2.63;;
54705;SDS011;40603;48.774;8.916;2022-11-15T13:14:55;6.20;;;2.03;;
54705;SDS011;40603;48.774;8.916;2022-11-15T13:19:48;3.22;;;1.70;;
54705;SDS011;40603;48.774;8.916;2022-11-15T13:30:38;3.60;;;1.83;;
54705;SDS011;40603;48.774;8.916;2022-11-15T13:33:13;5.32;;;1.92;;
54705;SDS011;40603;48.774;8.916;2022-11-15T13:35:41;9.80;;;2.45;;
54705;SDS011;40603;48.774;8.916;2022-11-15T13:38:11;11.52;;;2.63;;
54705;SDS011;40603;48.774;8.916;2022-11-15T13:40:44;6.38;;;2.38;;
54705;SDS011;40603;48.774;8.916;2022-11-15T13:43:15;6.78;;;2.10;;
54705;SDS011;40603;48.774;8.916;2022-11-15T13:46:05;8.32;;;2.40;;
54705;SDS011;40603;48.774;8.916;2022-11-15T13:48:37;12.57;;;2.42;;
54705;SDS011;40603;48.774;8.916;2022-11-15T13:51:07;6.30;;;2.28;;
54705;SDS011;40603;48.774;8.916;2022-11-15T13:53:43;3.95;;;1.90;;
54705;SDS011;40603;48.774;8.916;2022-11-15T13:56:11;5.43;;;1.75;;
54705;SDS011;40603;48.774;8.916;2022-11-15T13:58:38;3.63;;;1.73;;
54705;SDS011;40603;48.774;8.916;2022-11-15T14:01:04;6.68;;;1.90;;
54705;SDS011;40603;48.774;8.916;2022-11-15T14:03:31;3.10;;;1.85;;
54705;SDS011;40603;48.774;8.916;2022-11-15T14:06:12;6.05;;;2.10;;
54705;SDS011;40603;48.774;8.916;2022-11-15T14:08:40;5.72;;;1.90;;
54705;SDS011;40603;48.774;8.916;2022-11-15T14:11:24;2.85;;;1.90;;
54705;SDS011;40603;48.774;8.916;2022-11-15T14:14:01;4.18;;;1.80;;
54705;SDS011;40603;48.774;8.916;2022-11-15T14:16:40;2.95;;;1.70;;
54705;SDS011;40603;48.774;8.916;2022-11-15T14:24:41;5.68;;;1.75;;
54705;SDS011;40603;48.774;8.916;2022-11-15T14:29:50;9.05;;;2.20;;
54705;SDS011;40603;48.774;8.916;2022-11-15T14:32:17;3.97;;;1.80;;
54705;SDS011;40603;48.774;8.916;2022-11-15T14:34:44;2.45;;;1.85;;
54705;SDS011;40603;48.774;8.916;2022-11-15T14:37:32;5.65;;;2.03;;
54705;SDS011;40603;48.774;8.916;2022-11-15T14:39:59;2.88;;;1.73;;
54705;SDS011;40603;48.774;8.916;2022-11-15T14:42:25;3.95;;;2.10;;
54705;SDS011;40603;48.774;8.916;2022-11-15T14:44:50;3.75;;;1.95;;
54705;SDS011;40603;48.774;8.916;2022-11-15T14:47:16;7.57;;;2.00;;
54705;SDS011;40603;48.774;8.916;2022-11-15T14:49:42;10.77;;;1.92;;
54705;SDS011;40603;48.774;8.916;2022-11-15T14:52:16;3.33;;;1.88;;
54705;SDS011;40603;48.774;8.916;2022-11-15T14:54:55;6.20;;;1.75;;
54705;SDS011;40603;48.774;8.916;2022-11-15T14:57:22;8.35;;;1.83;;
54705;SDS011;40603;48.774;8.916;2022-11-15T14:59:48;6.15;;;2.08;;
54705;SDS011;40603;48.774;8.916;2022-11-15T15:02:14;5.90;;;1.95;;
54705;SDS011;40603;48.774;8.916;2022-11-15T15:04:45;3.47;;;1.60;;
54705;SDS011;40603;48.774;8.916;2022-11-15T15:07:10;2.70;;;1.83;;
54705;SDS011;40603;48.774;8.916;2022-11-15T15:09:35;2.58;;;1.40;;
54705;SDS011;40603;48.774;8.916;2022-11-15T15:12:01;7.97;;;1.40;;
54705;SDS011;40603;48.774;8.916;2022-11-15T15:14:26;3.03;;;1.45;;
54705;SDS011;40603;48.774;8.916;2022-11-15T15:16:51;2.15;;;1.63;;
54705;SDS011;40603;48.774;8.916;2022-11-15T15:19:16;3.08;;;1.45;;
54705;SDS011;40603;48.774;8.916;2022-11-15T15:21:42;3.78;;;1.60;;
54705;SDS011;40603;48.774;8.916;2022-11-15T15:24:09;4.47;;;1.70;;
54705;SDS011;40603;48.774;8.916;2022-11-15T15:26:38;3.67;;;1.58;;
54705;SDS011;40603;48.774;8.916;2022-11-15T15:29:04;6.95;;;1.70;;
54705;SDS011;40603;48.774;8.916;2022-11-15T15:31:29;2.15;;;1.42;;
54705;SDS011;40603;48.774;8.916;2022-11-15T15:33:55;2.72;;;1.70;;
54705;SDS011;40603;48.774;8.916;2022-11-15T15:36:20;2.65;;;1.60;;
54705;SDS011;40603;48.774;8.916;2022-11-15T15:38:46;3.30;;;1.42;;
54705;SDS011;40603;48.774;8.916;2022-11-15T15:41:12;3.38;;;1.50;;
54705;SDS011;40603;48.774;8.916;2022-11-15T15:43:38;3.50;;;1.58;;
54705;SDS011;40603;48.774;8.916;2022-11-15T15:46:04;3.30;;;1.55;;
54705;SDS011;40603;48.774;8.916;2022-11-15T15:48:30;2.78;;;1.75;;
54705;SDS011;40603;48.774;8.916;2022-11-15T15:50:55;2.05;;;1.42;;
54705;SDS011;40603;48.774;8.916;2022-11-15T15:53:20;4.00;;;1.58;;
54705;SDS011;40603;48.774;8.916;2022-11-15T15:55:46;4.22;;;1.73;;
54705;SDS011;40603;48.774;8.916;2022-11-15T15:58:11;3.67;;;1.45;;
54705;SDS011;40603;48.774;8.916;2022-11-15T16:00:36;4.10;;;1.70;;
54705;SDS011;40603;48.774;8.916;2022-11-15T16:03:01;2.13;;;1.50;;
54705;SDS011;40603;48.774;8.916;2022-11-15T16:05:27;3.78;;;2.03;;
54705;SDS011;40603;48.774;8.916;2022-11-15T16:07:52;3.90;;;2.33;;
54705;SDS011;40603;48.774;8.916;2022-11-15T16:10:19;2.50;;;1.90;;
54705;SDS011;40603;48.774;8.916;2022-11-15T16:12:47;2.85;;;1.80;;
54705;SDS011;40603;48.774;8.916;2022-11-15T16:15:12;5.38;;;2.33;;
54705;SDS011;40603;48.774;8.916;2022-11-15T16:17:39;3.75;;;1.92;;
54705;SDS011;40603;48.774;8.916;2022-11-15T16:20:36;4.55;;;2.22;;
54705;SDS011;40603;48.774;8.916;2022-11-15T16:23:08;5.95;;;2.00;;
54705;SDS011;40603;48.774;8.916;2022-11-15T16:25:42;3.25;;;2.15;;
54705;SDS011;40603;48.774;8.916;2022-11-15T16:28:29;2.60;;;1.60;;
54705;SDS011;40603;48.774;8.916;2022-11-15T16:30:59;4.53;;;2.08;;
54705;SDS011;40603;48.774;8.916;2022-11-15T16:33:33;5.82;;;2.85;;
54705;SDS011;40603;48.774;8.916;2022-11-15T16:35:58;4.80;;;2.53;;
54705;SDS011;40603;48.774;8.916;2022-11-15T16:38:24;2.92;;;2.30;;
54705;SDS011;40603;48.774;8.916;2022-11-15T16:40:49;4.93;;;2.60;;
54705;SDS011;40603;48.774;8.916;2022-11-15T16:43:15;5.22;;;2.25;;
54705;SDS011;40603;48.774;8.916;2022-11-15T16:45:40;5.05;;;2.13;;
54705;SDS011;40603;48.774;8.916;2022-11-15T16:48:05;4.38;;;2.10;;
54705;SDS011;40603;48.774;8.916;2022-11-15T16:50:32;6.90;;;2.50;;
54705;SDS011;40603;48.774;8.916;2022-11-15T16:53:03;6.45;;;2.17;;
54705;SDS011;40603;48.774;8.916;2022-11-15T16:55:29;11.45;;;6.07;;
54705;SDS011;40603;48.774;8.916;2022-11-15T16:57:55;6.72;;;4.18;;